Time;durP1;ratioP1;P1;durP2;ratioP2;P2;SDS_P1;SDS_P2;PMS_P1;PMS_P2;Temp;Humidity;BMP_temperature;BMP_pressure;BME280_temperature;BME280_humidity;BME280_pressure;Samples;Min_cycle;Max_cycle;Signal;HPM_P1;HPM_P2
2021/12/19 04:03:09;;;;;;;11.60;5.22;;;5.90;95.70;;;;;;5111657;27;20164;-40
2021/12/19 04:05:35;;;;;;;12.88;5.82;;;5.90;95.60;;;;;;5110961;28;20024;-38
2021/12/19 04:08:02;;;;;;;13.90;6.78;;;6.00;95.70;;;;;;5109634;28;20044;-38
2021/12/19 04:10:28;;;;;;;14.23;5.88;;;6.20;95.80;;;;;;5110753;28;20091;-39
2021/12/19 04:12:55;;;;;;;17.63;7.47;;;6.30;95.60;;;;;;5111357;28;20040;-38
2021/12/19 04:15:21;;;;;;;11.82;6.78;;;6.20;95.30;;;;;;5110929;28;20475;-38
2021/12/19 04:17:47;;;;;;;18.70;7.72;;;6.10;95.20;;;;;;5110759;28;20031;-40
2021/12/19 04:20:15;;;;;;;13.32;5.20;;;6.20;95.20;;;;;;5110671;28;20031;-38
2021/12/19 04:22:45;;;;;;;15.80;6.57;;;6.20;95.20;;;;;;5111294;28;20112;-38
2021/12/19 04:25:11;;;;;;;15.55;6.85;;;6.10;95.00;;;;;;5110554;28;20020;-38
2021/12/19 04:27:37;;;;;;;13.55;6.43;;;6.00;95.10;;;;;;5110686;28;20031;-38
2021/12/19 04:30:09;;;;;;;13.35;6.63;;;6.10;95.30;;;;;;5109231;28;20353;-38
2021/12/19 04:32:40;;;;;;;15.43;6.82;;;6.10;95.30;;;;;;5110485;28;20073;-38
2021/12/19 04:35:08;;;;;;;15.43;6.53;;;6.10;95.30;;;;;;5110367;28;20093;-39
2021/12/19 04:40:17;;;;;;;16.58;7.07;;;6.30;95.40;;;;;;5110345;28;20384;-39
2021/12/19 04:59:10;;;;;;;10.95;5.47;;;6.20;94.60;;;;;;5110517;28;20079;-40
2021/12/19 05:05:18;;;;;;;12.20;5.45;;;6.40;94.40;;;;;;5109885;28;20486;-39
2021/12/19 05:15:09;;;;;;;7.45;4.10;;;6.60;92.50;;;;;;5096415;28;20055;-39
2021/12/19 05:17:35;;;;;;;7.93;4.88;;;6.60;92.00;;;;;;5096176;28;20471;-39
2021/12/19 05:22:32;;;;;;;10.38;4.25;;;6.40;92.20;;;;;;5096093;28;20028;-38
2021/12/19 05:25:08;;;;;;;6.72;3.47;;;6.30;92.80;;;;;;5095815;28;20024;-39
2021/12/19 05:27:33;;;;;;;7.82;3.55;;;6.40;92.70;;;;;;5094761;28;20024;-39
2021/12/19 05:29:59;;;;;;;7.22;4.15;;;6.30;92.70;;;;;;5095883;28;20022;-39
2021/12/19 05:32:25;;;;;;;9.75;4.07;;;6.30;93.10;;;;;;5096187;28;20024;-39
2021/12/19 05:34:51;;;;;;;8.20;4.35;;;6.50;92.80;;;;;;5095653;28;20028;-39
2021/12/19 05:45:29;;;;;;;8.98;4.30;;;6.10;93.60;;;;;;5096068;28;20081;-39
2021/12/19 05:47:55;;;;;;;7.45;3.40;;;6.00;94.10;;;;;;5095421;28;20100;-39
2021/12/19 05:50:22;;;;;;;5.82;3.17;;;6.10;94.10;;;;;;5094129;28;20031;-40
2021/12/19 05:52:49;;;;;;;7.20;4.28;;;6.10;94.10;;;;;;5095440;28;20472;-38
2021/12/19 05:55:16;;;;;;;9.75;3.58;;;6.10;93.80;;;;;;5095507;28;20024;-38
2021/12/19 05:57:42;;;;;;;8.07;3.17;;;6.10;93.70;;;;;;5095599;28;20050;-38
2021/12/19 06:00:14;;;;;;;6.53;3.42;;;6.20;93.70;;;;;;5095409;28;20024;-39
2021/12/19 06:02:41;;;;;;;7.10;3.08;;;6.10;93.80;;;;;;5095044;28;20062;-38
2021/12/19 06:05:08;;;;;;;9.98;3.30;;;6.10;93.70;;;;;;5095209;28;20048;-38
2021/12/19 06:07:34;;;;;;;6.13;2.97;;;6.10;93.70;;;;;;5095053;28;20059;-38
2021/12/19 06:10:00;;;;;;;6.30;3.22;;;6.10;93.50;;;;;;5095271;28;20506;-39
2021/12/19 06:12:26;;;;;;;5.13;2.40;;;6.10;93.40;;;;;;5095140;28;20024;-39
2021/12/19 06:14:52;;;;;;;6.20;2.72;;;6.10;93.60;;;;;;5095029;28;20028;-39
2021/12/19 06:17:18;;;;;;;7.03;3.35;;;6.20;93.20;;;;;;5095211;28;20028;-38
2021/12/19 06:19:44;;;;;;;10.63;3.20;;;6.20;93.10;;;;;;5095092;28;20506;-38
2021/12/19 06:22:09;;;;;;;6.40;3.30;;;6.30;93.30;;;;;;5094657;28;20020;-38
2021/12/19 06:24:35;;;;;;;5.28;2.67;;;6.30;93.10;;;;;;5093899;28;20017;-38
2021/12/19 06:27:02;;;;;;;10.60;3.22;;;6.20;93.30;;;;;;5094761;28;20107;-38
2021/12/19 06:29:30;;;;;;;7.57;3.58;;;6.20;93.40;;;;;;5094784;28;20025;-40
2021/12/19 06:31:56;;;;;;;9.65;3.53;;;6.20;93.70;;;;;;5094797;28;20036;-38
2021/12/19 06:34:22;;;;;;;5.10;2.95;;;6.10;93.70;;;;;;5094549;28;20051;-38
2021/12/19 06:36:51;;;;;;;5.60;3.05;;;6.00;94.00;;;;;;5095129;28;20024;-38
2021/12/19 06:39:17;;;;;;;7.57;3.72;;;6.00;94.20;;;;;;5094818;28;20036;-38
2021/12/19 06:41:42;;;;;;;4.82;2.63;;;6.00;94.10;;;;;;5094496;28;20373;-39
2021/12/19 06:44:08;;;;;;;4.63;2.55;;;6.10;94.20;;;;;;5093164;28;20020;-39
2021/12/19 06:46:34;;;;;;;7.40;3.08;;;6.00;94.30;;;;;;5094658;28;20020;-38
2021/12/19 06:48:59;;;;;;;5.13;2.47;;;6.10;94.20;;;;;;5094544;28;20032;-39
2021/12/19 06:51:25;;;;;;;5.07;2.70;;;6.10;94.00;;;;;;5094270;28;20035;-39
2021/12/19 06:53:51;;;;;;;5.38;2.38;;;6.10;94.10;;;;;;5094180;28;20024;-39
2021/12/19 06:56:17;;;;;;;6.32;2.63;;;6.10;94.40;;;;;;5094104;28;20072;-39
2021/12/19 06:58:42;;;;;;;5.82;3.10;;;6.20;94.30;;;;;;5094020;28;20039;-39
2021/12/19 07:01:08;;;;;;;8.07;3.92;;;6.10;94.20;;;;;;5093716;28;20484;-39
2021/12/19 07:03:34;;;;;;;8.02;3.78;;;6.10;94.30;;;;;;5094219;28;20020;-41
2021/12/19 07:06:00;;;;;;;7.85;3.55;;;6.00;94.50;;;;;;5094196;28;20020;-38
2021/12/19 07:08:26;;;;;;;4.47;2.50;;;6.20;94.40;;;;;;5093967;28;20095;-40
2021/12/19 07:10:52;;;;;;;4.80;2.33;;;6.20;94.20;;;;;;5092535;28;20107;-40
2021/12/19 07:13:20;;;;;;;5.38;2.80;;;6.20;94.10;;;;;;5093769;28;20146;-38
2021/12/19 07:15:50;;;;;;;4.78;2.75;;;6.20;93.90;;;;;;5094033;28;20020;-38
2021/12/19 07:18:16;;;;;;;4.43;2.10;;;6.20;94.30;;;;;;5093954;28;20095;-38
2021/12/19 07:20:43;;;;;;;4.28;2.03;;;6.20;94.40;;;;;;5093722;28;20522;-38
2021/12/19 07:23:19;;;;;;;7.53;2.85;;;6.20;94.50;;;;;;5094046;28;20472;-38
2021/12/19 07:25:45;;;;;;;6.03;3.30;;;6.20;94.60;;;;;;5094073;28;20020;-38
2021/12/19 07:28:12;;;;;;;5.35;3.70;;;6.20;94.50;;;;;;5093834;28;20134;-39
2021/12/19 07:30:39;;;;;;;5.50;3.15;;;6.30;94.60;;;;;;5093469;28;20430;-40
2021/12/19 07:33:06;;;;;;;5.53;3.22;;;6.30;94.50;;;;;;5093421;28;20028;-39
2021/12/19 07:35:35;;;;;;;6.90;3.47;;;6.30;94.50;;;;;;5093148;28;20024;-38
2021/12/19 07:38:03;;;;;;;7.90;4.32;;;6.30;94.50;;;;;;5093661;28;20094;-39
2021/12/19 07:40:36;;;;;;;11.45;4.22;;;6.40;94.60;;;;;;5093609;28;20153;-39
2021/12/19 07:43:03;;;;;;;6.43;2.83;;;6.30;94.40;;;;;;5093584;28;20093;-39
2021/12/19 07:45:30;;;;;;;7.78;3.63;;;6.30;94.40;;;;;;5094239;28;20456;-39
2021/12/19 07:47:56;;;;;;;4.85;2.42;;;6.30;94.30;;;;;;5092033;28;20376;-39
2021/12/19 07:50:22;;;;;;;7.57;3.28;;;6.30;94.30;;;;;;5093368;28;20031;-38
2021/12/19 07:52:48;;;;;;;8.27;3.08;;;6.30;94.60;;;;;;5093210;28;20024;-38
2021/12/19 07:55:14;;;;;;;6.90;3.67;;;6.30;94.70;;;;;;5091899;28;20117;-40
2021/12/19 07:57:40;;;;;;;7.60;3.83;;;6.20;94.70;;;;;;5093010;28;20024;-39
2021/12/19 08:00:09;;;;;;;9.18;3.47;;;6.40;94.70;;;;;;5093052;28;20035;-40
2021/12/19 14:03:06;;;;;;;15.07;5.80;;;6.50;94.10;;;;;;5027111;28;20312;-38
2021/12/19 14:05:38;;;;;;;9.57;4.85;;;6.70;94.30;;;;;;5026947;28;20025;-39
2021/12/19 14:08:26;;;;;;;13.23;5.85;;;6.80;94.10;;;;;;5009312;28;20427;-39
2021/12/19 14:11:02;;;;;;;10.45;5.55;;;6.80;93.70;;;;;;5026954;28;20025;-38
2021/12/19 14:13:32;;;;;;;12.13;4.03;;;7.10;93.80;;;;;;5008901;28;20053;-38
2021/12/19 14:15:58;;;;;;;9.73;5.05;;;6.90;93.20;;;;;;5026913;28;20101;-39
2021/12/19 14:18:40;;;;;;;9.15;4.63;;;6.80;93.60;;;;;;5026603;28;20196;-39
2021/12/19 14:21:38;;;;;;;12.18;3.42;;;6.90;93.60;;;;;;5026813;28;20029;-38
2021/12/19 14:24:32;;;;;;;10.32;4.68;;;6.80;93.60;;;;;;5026792;28;20124;-39
2021/12/19 14:27:07;;;;;;;7.57;3.28;;;6.80;93.60;;;;;;5026639;28;20049;-39
2021/12/19 14:29:33;;;;;;;5.53;3.03;;;6.90;93.30;;;;;;5026250;28;20026;-39
2021/12/19 14:32:12;;;;;;;7.57;4.13;;;6.80;93.20;;;;;;5026672;28;20034;-40
2021/12/19 14:34:39;;;;;;;8.40;4.95;;;6.90;93.40;;;;;;5026454;28;20052;-39
2021/12/19 14:37:27;;;;;;;12.98;5.32;;;6.90;93.30;;;;;;5026204;28;20049;-40
2021/12/19 14:40:04;;;;;;;6.75;3.38;;;6.90;93.30;;;;;;5025096;28;20456;-39
2021/12/19 14:42:33;;;;;;;5.82;3.63;;;6.80;93.60;;;;;;5024975;28;20097;-40
2021/12/19 14:45:01;;;;;;;10.38;3.08;;;6.80;93.90;;;;;;5026699;28;20022;-39
2021/12/19 14:48:02;;;;;;;7.38;2.97;;;6.70;93.80;;;;;;5026154;28;20082;-39
2021/12/19 14:50:47;;;;;;;7.07;3.65;;;6.60;94.30;;;;;;5025944;28;20018;-39
2021/12/19 14:53:22;;;;;;;5.75;2.85;;;6.70;94.30;;;;;;5026603;28;20097;-40
2021/12/19 14:55:52;;;;;;;9.27;3.10;;;6.70;94.10;;;;;;5026467;28;20065;-38
2021/12/19 14:58:19;;;;;;;7.40;2.78;;;6.70;94.30;;;;;;5026296;28;20026;-39
2021/12/19 15:00:57;;;;;;;11.98;3.78;;;6.60;94.40;;;;;;5025743;28;20492;-40
2021/12/19 15:03:23;;;;;;;4.18;2.50;;;6.70;94.40;;;;;;5026295;28;20026;-39
2021/12/19 15:05:49;;;;;;;7.95;3.53;;;6.60;94.50;;;;;;5025857;28;20025;-39
2021/12/19 15:08:17;;;;;;;5.97;3.22;;;6.60;94.70;;;;;;5026065;28;20022;-39
2021/12/19 15:10:45;;;;;;;4.72;3.15;;;6.70;94.70;;;;;;5025984;28;20030;-39
2021/12/19 15:13:11;;;;;;;6.68;2.75;;;6.70;94.60;;;;;;5019574;28;20022;-38
2021/12/19 15:15:37;;;;;;;10.05;3.97;;;6.70;94.60;;;;;;5012505;28;20030;-38
2021/12/19 15:18:04;;;;;;;4.22;2.72;;;6.60;94.80;;;;;;5012642;28;20022;-39
2021/12/19 15:20:29;;;;;;;5.72;2.90;;;6.60;94.80;;;;;;5012243;28;20022;-38
2021/12/19 15:22:57;;;;;;;10.52;3.28;;;6.70;94.80;;;;;;5012638;28;20022;-38
2021/12/19 15:25:23;;;;;;;8.20;3.20;;;6.70;94.70;;;;;;5012420;28;20104;-40
2021/12/19 15:27:48;;;;;;;9.50;4.10;;;6.70;94.70;;;;;;5012058;28;20041;-39
2021/12/19 15:30:16;;;;;;;6.97;4.10;;;6.80;94.70;;;;;;5011999;28;20026;-39
2021/12/19 15:32:41;;;;;;;14.00;4.57;;;6.80;94.50;;;;;;5010921;28;20435;-39
2021/12/19 15:35:09;;;;;;;11.40;5.07;;;6.70;94.50;;;;;;5012541;28;20026;-39
2021/12/19 15:37:36;;;;;;;10.57;4.00;;;6.60;94.70;;;;;;5013268;28;20130;-40
2021/12/19 15:40:03;;;;;;;7.75;4.38;;;6.60;94.80;;;;;;5012973;28;20378;-39
2021/12/19 15:42:29;;;;;;;13.68;5.70;;;6.70;94.90;;;;;;5010780;28;20535;-39
2021/12/19 15:44:55;;;;;;;9.80;4.63;;;6.70;94.80;;;;;;5013126;28;20206;-39
2021/12/19 15:47:20;;;;;;;9.35;5.40;;;6.70;94.90;;;;;;5012028;28;20030;-39
2021/12/19 15:49:46;;;;;;;11.00;5.25;;;6.70;94.80;;;;;;5010292;28;20032;-40
2021/12/19 15:52:12;;;;;;;10.43;4.10;;;6.70;94.70;;;;;;5011628;28;20026;-39
2021/12/19 15:54:39;;;;;;;14.23;5.35;;;6.60;94.80;;;;;;5012677;28;20026;-39
2021/12/19 15:57:05;;;;;;;13.65;7.32;;;6.60;95.00;;;;;;5011411;28;20022;-39
2021/12/19 15:59:34;;;;;;;12.52;7.90;;;6.60;95.00;;;;;;5011945;28;20427;-39
2021/12/19 16:02:02;;;;;;;9.35;6.15;;;6.60;95.00;;;;;;5012910;28;20447;-39
2021/12/19 16:04:28;;;;;;;11.43;6.30;;;6.70;95.10;;;;;;5011924;28;20029;-39
2021/12/19 16:06:53;;;;;;;10.73;5.65;;;6.60;94.90;;;;;;5011760;28;20026;-40
2021/12/19 16:09:19;;;;;;;11.90;6.40;;;6.60;95.20;;;;;;5011852;28;20054;-39
2021/12/19 16:11:45;;;;;;;12.65;6.53;;;6.60;95.10;;;;;;5011303;28;20037;-39
2021/12/19 16:14:10;;;;;;;9.77;6.55;;;6.80;95.30;;;;;;5011758;28;20054;-39
2021/12/19 16:16:36;;;;;;;12.50;7.18;;;6.80;95.10;;;;;;5011571;28;20465;-39
2021/12/19 16:19:03;;;;;;;9.68;6.47;;;6.90;94.90;;;;;;5012052;28;20044;-40
2021/12/19 16:21:29;;;;;;;10.50;6.65;;;6.90;94.70;;;;;;5011458;28;20121;-41
2021/12/19 16:23:55;;;;;;;9.93;6.55;;;6.80;94.70;;;;;;5011135;28;20093;-39
2021/12/19 16:26:21;;;;;;;14.10;7.03;;;6.80;94.80;;;;;;5009690;28;20030;-39
2021/12/19 16:28:46;;;;;;;10.65;6.85;;;6.70;94.90;;;;;;5011173;28;20033;-39
2021/12/19 16:31:16;;;;;;;10.40;6.88;;;6.70;94.90;;;;;;5011294;28;20035;-40
2021/12/19 16:33:43;;;;;;;8.15;6.00;;;6.80;94.90;;;;;;5011683;28;20030;-39
2021/12/19 16:36:09;;;;;;;10.85;6.57;;;6.80;94.80;;;;;;5011681;28;20482;-40
2021/12/19 16:38:35;;;;;;;11.25;6.07;;;6.80;94.80;;;;;;5011446;28;20033;-39
2021/12/19 16:41:03;;;;;;;10.43;6.32;;;6.80;94.90;;;;;;5011621;28;20133;-39
2021/12/19 16:43:30;;;;;;;13.35;5.70;;;6.80;94.90;;;;;;5011787;28;20076;-39
2021/12/19 16:46:12;;;;;;;15.00;7.68;;;6.80;94.70;;;;;;5011689;28;20026;-40
2021/12/19 16:48:38;;;;;;;10.80;6.78;;;6.80;94.70;;;;;;5011423;28;20021;-39
2021/12/19 16:51:05;;;;;;;10.23;6.03;;;6.80;94.80;;;;;;5010615;28;20029;-39
2021/12/19 16:53:33;;;;;;;8.75;5.90;;;6.80;94.90;;;;;;5010975;28;20113;-39
2021/12/19 16:55:59;;;;;;;8.52;6.38;;;6.70;94.80;;;;;;5009639;28;20138;-39
2021/12/19 16:58:25;;;;;;;11.63;6.13;;;6.80;94.90;;;;;;5010745;28;20475;-39
2021/12/19 17:00:51;;;;;;;9.93;6.53;;;6.80;94.80;;;;;;5010479;28;20030;-39
2021/12/19 17:03:19;;;;;;;19.15;7.97;;;6.80;94.80;;;;;;5012837;28;20089;-40
2021/12/19 17:05:44;;;;;;;12.27;7.05;;;6.80;94.80;;;;;;5009970;28;20022;-39
2021/12/19 17:08:10;;;;;;;12.57;6.15;;;6.70;94.80;;;;;;5010961;28;20081;-39
2021/12/19 17:10:37;;;;;;;10.32;6.20;;;6.80;94.90;;;;;;5010606;28;20109;-39
2021/12/19 17:13:05;;;;;;;14.48;6.82;;;6.80;95.00;;;;;;5010671;28;20492;-42
2021/12/19 17:15:31;;;;;;;13.00;5.60;;;6.80;94.90;;;;;;5010743;28;20113;-39
2021/12/19 17:17:58;;;;;;;13.40;5.68;;;6.80;94.80;;;;;;5010729;28;20030;-40
2021/12/19 17:20:25;;;;;;;16.70;6.90;;;6.80;94.90;;;;;;5010730;28;20036;-39
2021/12/19 17:22:53;;;;;;;15.30;5.85;;;6.80;95.00;;;;;;5010947;28;20041;-39
2021/12/19 17:25:19;;;;;;;12.93;5.47;;;6.80;94.70;;;;;;5010508;28;20022;-39
2021/12/19 17:27:46;;;;;;;14.48;6.60;;;6.80;94.70;;;;;;5011400;28;20018;-40
2021/12/19 17:30:13;;;;;;;8.18;5.30;;;6.70;94.80;;;;;;5011267;28;20018;-39
2021/12/19 17:32:39;;;;;;;8.13;6.00;;;6.70;94.90;;;;;;5011351;28;20026;-40
2021/12/19 17:35:06;;;;;;;16.38;6.03;;;6.80;94.80;;;;;;5010673;28;20040;-40
2021/12/19 17:37:34;;;;;;;15.63;5.53;;;6.80;94.70;;;;;;5010448;28;20037;-39
2021/12/19 17:40:07;;;;;;;11.95;5.50;;;6.80;94.60;;;;;;5010697;28;20033;-39
2021/12/19 17:42:33;;;;;;;14.50;6.40;;;6.80;94.50;;;;;;5010470;28;20029;-41
2021/12/19 17:44:59;;;;;;;11.52;5.60;;;6.80;94.50;;;;;;5011060;28;20026;-39
2021/12/19 17:47:25;;;;;;;11.35;6.30;;;6.80;94.50;;;;;;5009692;28;20029;-40
2021/12/19 17:49:52;;;;;;;9.57;5.65;;;6.80;94.80;;;;;;5010583;28;20105;-40
2021/12/19 17:52:18;;;;;;;7.65;4.93;;;6.80;94.90;;;;;;5011145;28;20456;-39
2021/12/19 17:54:46;;;;;;;10.15;6.07;;;6.80;94.50;;;;;;5010051;28;20064;-39
2021/12/19 17:57:12;;;;;;;9.20;5.82;;;6.80;94.50;;;;;;5011961;28;20025;-39
2021/12/19 17:59:38;;;;;;;21.70;8.27;;;6.80;94.50;;;;;;5010401;28;20026;-40
2021/12/19 18:02:05;;;;;;;13.88;5.93;;;6.80;94.50;;;;;;5010293;28;20057;-39
2021/12/19 18:04:32;;;;;;;18.10;6.97;;;6.80;94.60;;;;;;5010859;28;20147;-40
2021/12/19 18:06:58;;;;;;;11.32;7.32;;;6.80;94.90;;;;;;5010656;28;20022;-38
2021/12/19 18:09:24;;;;;;;13.05;6.93;;;6.80;94.60;;;;;;5010624;28;20028;-39
2021/12/19 18:11:49;;;;;;;12.65;6.93;;;6.80;94.60;;;;;;5010644;28;20022;-40
2021/12/19 18:14:15;;;;;;;11.75;7.38;;;7.00;94.40;;;;;;5010140;28;20075;-39
2021/12/19 18:16:41;;;;;;;13.93;7.60;;;7.00;94.20;;;;;;5010129;28;20022;-39
2021/12/19 18:19:07;;;;;;;16.83;7.90;;;7.10;94.00;;;;;;5010737;28;20034;-40
2021/12/19 18:21:34;;;;;;;14.63;8.02;;;7.10;93.90;;;;;;5009887;28;20022;-39
2021/12/19 18:24:00;;;;;;;11.48;7.15;;;7.00;93.90;;;;;;5008581;28;20022;-40
2021/12/19 18:26:26;;;;;;;17.38;8.60;;;7.10;94.30;;;;;;5010091;28;20067;-38
2021/12/19 18:28:56;;;;;;;14.18;7.82;;;7.00;94.00;;;;;;5010187;28;20033;-39
2021/12/19 18:31:24;;;;;;;14.70;7.85;;;6.80;94.20;;;;;;5010290;28;20022;-39
2021/12/19 18:33:51;;;;;;;17.33;9.35;;;6.90;94.50;;;;;;5009780;28;20178;-39
2021/12/19 18:36:20;;;;;;;12.70;8.23;;;6.80;94.50;;;;;;5009862;28;20114;-41
2021/12/19 18:38:47;;;;;;;19.23;7.70;;;6.90;94.50;;;;;;5010617;28;20044;-39
2021/12/19 18:41:29;;;;;;;14.50;7.82;;;6.80;94.70;;;;;;5009208;28;20170;-39
2021/12/19 18:44:05;;;;;;;13.18;6.65;;;6.80;94.80;;;;;;5009181;28;20030;-40
2021/12/19 18:46:45;;;;;;;14.30;7.05;;;6.80;94.80;;;;;;5010720;28;20116;-40
2021/12/19 18:49:26;;;;;;;17.73;7.13;;;6.90;94.80;;;;;;5012480;28;20491;-40
2021/12/19 18:52:07;;;;;;;15.52;7.13;;;7.00;94.80;;;;;;5013128;28;20090;-40
2021/12/19 18:54:42;;;;;;;14.85;8.50;;;6.90;94.70;;;;;;5014477;28;20149;-39
2021/12/19 18:57:10;;;;;;;13.63;7.90;;;6.90;94.70;;;;;;5014627;28;20376;-38
2021/12/19 18:59:43;;;;;;;15.52;7.88;;;6.90;94.70;;;;;;5014000;28;20060;-39
2021/12/19 19:02:24;;;;;;;16.02;7.97;;;6.80;94.60;;;;;;5013482;28;20046;-39
2021/12/19 19:04:51;;;;;;;16.80;8.80;;;6.90;94.70;;;;;;5013871;28;20014;-41
2021/12/19 19:07:18;;;;;;;16.25;8.70;;;7.00;94.70;;;;;;5013896;28;20477;-39
2021/12/19 19:09:46;;;;;;;12.07;7.07;;;6.80;94.60;;;;;;5014635;28;20382;-40
2021/12/19 19:12:12;;;;;;;12.85;6.63;;;6.90;94.70;;;;;;5012838;28;20022;-40
2021/12/19 19:14:39;;;;;;;12.20;7.63;;;6.80;94.80;;;;;;5012726;28;20112;-38
2021/12/19 19:17:05;;;;;;;12.52;6.90;;;6.80;94.90;;;;;;5011487;28;20029;-39
2021/12/19 19:19:31;;;;;;;20.60;7.65;;;6.80;95.00;;;;;;5013617;28;20061;-39
2021/12/19 19:21:57;;;;;;;11.25;6.85;;;6.80;95.00;;;;;;5012877;28;20033;-39
2021/12/19 19:24:24;;;;;;;22.65;7.03;;;6.80;94.90;;;;;;5013111;28;20018;-40
2021/12/19 19:26:51;;;;;;;20.25;8.40;;;6.90;95.00;;;;;;5013376;28;20022;-41
2021/12/19 19:29:18;;;;;;;17.58;7.22;;;6.80;94.90;;;;;;5013443;28;20022;-41
2021/12/19 19:31:44;;;;;;;16.42;8.25;;;6.90;94.90;;;;;;5013157;28;20029;-40
2021/12/19 19:34:13;;;;;;;26.40;8.60;;;7.00;95.10;;;;;;5013619;28;20026;-42
2021/12/19 19:36:43;;;;;;;22.08;8.48;;;7.10;95.00;;;;;;5012772;28;20034;-41
2021/12/19 19:49:50;;;;;;;15.23;8.65;;;7.10;93.60;;;;;;5012690;28;20185;-41
2021/12/19 19:52:16;;;;;;;20.35;10.40;;;7.00;93.90;;;;;;5012243;28;20058;-40
2021/12/19 19:54:42;;;;;;;21.52;9.65;;;7.10;94.10;;;;;;5012488;28;20040;-41
2021/12/19 19:57:08;;;;;;;13.35;7.80;;;7.00;94.30;;;;;;5012843;28;20464;-40
2021/12/19 19:59:36;;;;;;;14.70;7.88;;;7.00;94.50;;;;;;5012556;28;20050;-41
2021/12/19 20:02:04;;;;;;;15.93;7.50;;;7.10;94.20;;;;;;5012407;28;20067;-40
2021/12/19 20:04:32;;;;;;;15.18;7.68;;;7.20;93.80;;;;;;5012277;28;20067;-41
2021/12/19 20:06:58;;;;;;;19.95;8.90;;;7.30;93.60;;;;;;5012268;28;20029;-39
2021/12/19 20:09:27;;;;;;;17.45;9.85;;;7.30;93.10;;;;;;5010801;28;20034;-40
2021/12/19 20:11:55;;;;;;;18.97;10.27;;;7.20;93.30;;;;;;5012215;28;20048;-41
2021/12/19 20:14:24;;;;;;;16.00;6.78;;;7.10;93.40;;;;;;5012723;28;20322;-40
2021/12/19 20:16:57;;;;;;;17.20;7.43;;;7.10;93.80;;;;;;5012372;28;20065;-40
2021/12/19 20:19:23;;;;;;;11.85;6.82;;;6.90;94.10;;;;;;5010614;28;20022;-40
2021/12/19 20:21:49;;;;;;;16.17;6.60;;;6.80;94.60;;;;;;5010766;28;20052;-39
2021/12/19 20:24:15;;;;;;;13.40;7.97;;;6.80;94.80;;;;;;5011908;28;20342;-41
2021/12/19 20:26:41;;;;;;;12.15;6.88;;;6.90;94.90;;;;;;5012292;28;20038;-39
2021/12/19 20:29:07;;;;;;;14.90;7.78;;;6.90;94.80;;;;;;5011484;28;20410;-39
2021/12/19 20:31:33;;;;;;;10.07;7.30;;;6.90;94.70;;;;;;5012103;28;20160;-41
2021/12/19 20:33:59;;;;;;;13.80;6.60;;;6.90;94.80;;;;;;5011503;28;20037;-39
2021/12/19 20:36:25;;;;;;;19.10;8.38;;;6.90;94.80;;;;;;5011638;28;20034;-41
2021/12/19 20:38:50;;;;;;;16.30;8.05;;;7.00;94.70;;;;;;5011564;28;20030;-40
2021/12/19 20:41:16;;;;;;;9.45;6.03;;;7.00;94.50;;;;;;5011600;28;20115;-40
2021/12/19 20:43:42;;;;;;;8.23;5.30;;;6.90;94.30;;;;;;5011301;28;20030;-40
2021/12/19 20:46:08;;;;;;;17.23;6.18;;;6.80;94.30;;;;;;5011466;28;20511;-39
2021/12/19 20:48:34;;;;;;;13.60;6.15;;;6.80;94.50;;;;;;5011741;28;20119;-39
2021/12/19 20:51:01;;;;;;;8.18;5.00;;;6.80;94.50;;;;;;5012510;28;20026;-43
2021/12/19 20:53:29;;;;;;;15.63;5.70;;;6.80;94.50;;;;;;5012043;28;20029;-53
2021/12/19 20:55:58;;;;;;;8.80;5.95;;;6.90;94.40;;;;;;5011674;28;20032;-53
2021/12/19 20:58:25;;;;;;;10.98;5.70;;;6.80;94.40;;;;;;5010241;28;20047;-50
2021/12/19 21:00:51;;;;;;;13.52;6.97;;;6.80;94.60;;;;;;5011543;28;20022;-52
2021/12/19 21:03:17;;;;;;;8.43;5.38;;;6.80;94.50;;;;;;5011570;28;20120;-49
2021/12/19 21:05:43;;;;;;;9.27;6.30;;;6.90;94.60;;;;;;5011189;28;20097;-52
2021/12/19 21:08:10;;;;;;;14.27;6.47;;;6.80;94.30;;;;;;5011929;28;20022;-51
2021/12/19 21:10:36;;;;;;;16.40;7.50;;;6.80;94.40;;;;;;5009577;28;20022;-52
2021/12/19 21:13:05;;;;;;;10.38;5.88;;;6.90;94.20;;;;;;5011544;28;20076;-53
2021/12/19 21:21:04;;;;;;;20.95;6.72;;;6.80;94.40;;;;;;5011840;28;20033;-53
2021/12/19 21:23:30;;;;;;;15.20;6.25;;;6.80;94.40;;;;;;5011081;28;20377;-51
2021/12/19 21:25:56;;;;;;;16.40;6.40;;;6.90;94.40;;;;;;5011296;28;20032;-39
2021/12/19 21:28:21;;;;;;;12.65;5.63;;;6.80;94.40;;;;;;5010992;28;20030;-39
2021/12/19 21:30:48;;;;;;;8.43;5.50;;;6.80;94.50;;;;;;5009692;28;20026;-40
2021/12/19 21:33:15;;;;;;;11.52;5.70;;;6.80;94.50;;;;;;5010721;28;20052;-39
2021/12/19 21:35:56;;;;;;;13.25;5.78;;;6.80;94.40;;;;;;5010931;28;20049;-39
2021/12/19 21:41:09;;;;;;;8.00;4.03;;;6.90;94.50;;;;;;5011167;28;20107;-40
2021/12/19 21:43:35;;;;;;;14.32;4.93;;;6.90;93.90;;;;;;5010891;28;20465;-39
2021/12/19 21:46:01;;;;;;;16.77;4.85;;;7.00;93.50;;;;;;5011273;28;20022;-38
2021/12/19 21:48:27;;;;;;;15.23;6.05;;;7.00;93.30;;;;;;5011426;28;20026;-39
2021/12/19 21:50:53;;;;;;;7.30;4.55;;;7.10;92.80;;;;;;5010546;28;20018;-39
2021/12/19 21:53:19;;;;;;;12.13;4.43;;;7.10;92.40;;;;;;5010885;28;20022;-39
2021/12/19 21:55:45;;;;;;;5.75;3.25;;;7.00;92.40;;;;;;5011186;28;20087;-38
2021/12/19 21:58:10;;;;;;;20.63;5.65;;;6.90;92.30;;;;;;5010605;28;20029;-39
2021/12/19 22:00:38;;;;;;;10.68;3.58;;;6.80;92.30;;;;;;5010371;28;20034;-39
2021/12/19 22:03:08;;;;;;;12.43;4.25;;;6.80;92.70;;;;;;5010424;28;20045;-39
2021/12/19 22:05:35;;;;;;;15.02;4.50;;;6.80;92.80;;;;;;5010269;28;20026;-39
2021/12/19 22:08:01;;;;;;;15.60;4.93;;;6.80;92.70;;;;;;5009949;28;20522;-39
2021/12/19 22:10:27;;;;;;;11.90;4.70;;;6.80;92.80;;;;;;5010167;28;20030;-39
2021/12/19 22:15:28;;;;;;;16.63;5.70;;;6.80;93.10;;;;;;5010848;28;20030;-39
2021/12/19 22:18:02;;;;;;;;;;;6.80;93.20;;;;;;5011099;28;20105;-39
2021/12/19 22:20:30;;;;;;;13.43;4.95;;;6.90;93.10;;;;;;5009846;28;19905;-39
2021/12/19 22:22:58;;;;;;;11.50;4.38;;;7.00;92.70;;;;;;5010491;28;20105;-39
2021/12/19 22:25:25;;;;;;;18.38;4.45;;;6.90;92.60;;;;;;5013433;28;20030;-38
2021/12/19 22:27:53;;;;;;;10.65;4.00;;;6.90;92.90;;;;;;5013742;28;20102;-38
2021/12/19 22:30:19;;;;;;;12.77;4.35;;;7.10;92.90;;;;;;5013832;28;20029;-40
2021/12/19 22:32:45;;;;;;;9.60;4.40;;;7.10;92.40;;;;;;5012551;28;20025;-39
2021/12/19 22:35:10;;;;;;;11.45;4.65;;;6.90;92.50;;;;;;5013736;28;20075;-38
2021/12/19 22:37:37;;;;;;;13.43;3.72;;;6.80;92.90;;;;;;5013181;28;20139;-38
2021/12/19 22:40:05;;;;;;;12.85;3.75;;;6.80;93.10;;;;;;5013417;28;20049;-39
2021/12/19 22:42:31;;;;;;;13.27;4.47;;;6.80;93.30;;;;;;5013188;28;20041;-39
2021/12/19 22:44:57;;;;;;;16.83;5.10;;;6.90;93.20;;;;;;5013992;28;20034;-38
2021/12/19 22:47:23;;;;;;;15.18;4.65;;;6.90;93.20;;;;;;5012930;28;20034;-39
2021/12/19 22:49:49;;;;;;;15.63;4.72;;;6.90;93.00;;;;;;5014167;28;20068;-38
2021/12/19 22:52:14;;;;;;;12.60;5.20;;;7.00;93.00;;;;;;5013939;28;20030;-40
2021/12/19 22:54:40;;;;;;;12.35;4.93;;;6.80;92.70;;;;;;5014234;28;20121;-52
2021/12/19 22:57:06;;;;;;;14.32;4.00;;;6.80;93.00;;;;;;5014225;28;20037;-50
2021/12/19 22:59:32;;;;;;;14.32;4.60;;;6.90;93.10;;;;;;5013832;28;20040;-53
